Accueil
METAR-TAF:

METAR-TAF

Aéroports :

Aéroport international Cesária-Évora

São Vicente, Cap-Vert

latitude: 16-49-59N, longitude: 25-03-25W, altitude: 20 m

Observation

Le bulletin a été fait il y a 40 minutes, à 19:00 UTC
Vent 13 kt de nord-est
Température 28°C
Humidité 66%
Pression 1013 hPa
Visibilité 10 km ou plus
Nuages épars à une hauteur de 1800 ft

METAR: GVSV 261900Z 05013KT 9999 SCT018 28/21 Q1013 NOSIG

Heure: 18:40 (19:40 UTC)

Prévision

Le bulletin a été fait il y a 2 heures et 40 minutes, à 17:00 UTC
Prévision valable du 26 à 18 UTC au 27 à 24 UTC
Vent 15 kt de nord-est
Visibilité 10 km ou plus
Nuages épars à une hauteur de 2000 ft

TAF: GVSV 261700Z 2618/2724 05015KT 9999 SCT020

Observations et prévisions météorologiques de plus de 4000 aéroports (messages METAR et TAF).

Les stations disponibles sont représentées par des disques jaunes et rouges sur la carte.

Passer la souris dessus pour voir le nom de la station.

Cliquer dessus pour voir les observations et prévisions météorologiques.

Pour changer de carte: cliquez sur les boutons verts avec une croix noire pour zoomer, sur le bouton vert avec un tiret pour effectuer un zoom arrière, ou sur les flèches vertes pour les cartes adjacentes.


METAR-TAF: